Time;durP1;ratioP1;P1;durP2;ratioP2;P2;SDS_P1;SDS_P2;PMS_P1;PMS_P2;Temp;Humidity;BMP_temperature;BMP_pressure;BME280_temperature;BME280_humidity;BME280_pressure;Samples;Min_cycle;Max_cycle;Signal;HPM_P1;HPM_P2
2022/01/25 00:28:39;;;;;;;62.45;35.38;;;4.90;99.90;;;;;;4998043;28;20674;-59
2022/01/25 00:33:38;;;;;;;63.80;35.00;;;4.90;99.90;;;;;;5002758;28;20047;-58
2022/01/25 00:36:09;;;;;;;59.78;33.03;;;4.80;99.90;;;;;;4918468;28;20552;-58
2022/01/25 00:38:35;;;;;;;65.47;36.13;;;5.00;99.90;;;;;;5012043;28;20471;-59
2022/01/25 00:41:01;;;;;;;64.03;34.25;;;4.90;99.90;;;;;;4977376;28;20418;-59
2022/01/25 00:43:27;;;;;;;65.00;34.58;;;4.80;99.90;;;;;;4915737;28;20050;-58
2022/01/25 00:45:58;;;;;;;60.50;33.90;;;4.80;99.90;;;;;;4919594;28;20512;-59
2022/01/25 00:53:56;;;;;;;65.32;35.22;;;4.90;99.90;;;;;;4995026;28;20117;-59
2022/01/25 00:56:24;;;;;;;53.28;31.38;;;4.90;99.90;;;;;;4999816;28;20466;-59
2022/01/25 00:58:51;;;;;;;65.50;35.53;;;4.90;99.90;;;;;;5008426;28;20131;-59
2022/01/25 01:01:18;;;;;;;57.90;32.60;;;4.90;99.90;;;;;;4999070;28;20051;-59
2022/01/25 01:03:44;;;;;;;57.50;32.92;;;4.80;99.90;;;;;;5002866;28;20041;-59
2022/01/25 01:06:09;;;;;;;66.22;34.85;;;4.90;99.90;;;;;;4998768;28;20086;-58
2022/01/25 01:08:35;;;;;;;68.45;36.97;;;4.90;99.90;;;;;;4980440;28;20043;-59
2022/01/25 01:11:05;;;;;;;64.47;35.20;;;4.90;99.90;;;;;;4996848;28;20478;-59
2022/01/25 01:35:24;;;;;;;64.68;35.00;;;4.80;99.90;;;;;;4997319;28;20065;-59
2022/01/25 01:37:53;;;;;;;70.75;38.95;;;4.80;99.90;;;;;;4998219;28;20120;-59
2022/01/25 01:48:05;;;;;;;66.03;34.80;;;4.80;99.90;;;;;;5013741;28;19919;-59
2022/01/25 01:50:34;;;;;;;59.38;34.35;;;4.80;99.90;;;;;;4979164;28;20051;-59
2022/01/25 01:53:02;;;;;;;74.15;36.83;;;4.80;99.90;;;;;;4994096;28;20408;-59
2022/01/25 01:55:28;;;;;;;64.05;35.10;;;4.80;99.90;;;;;;5002727;28;20035;-60
2022/01/25 01:57:56;;;;;;;53.85;31.58;;;4.80;99.90;;;;;;4991922;28;20547;-59
2022/01/25 02:00:26;;;;;;;63.55;35.47;;;4.80;99.90;;;;;;5005604;28;20051;-60
2022/01/25 02:02:51;;;;;;;66.00;37.58;;;4.80;99.90;;;;;;4930141;28;20118;-58
2022/01/25 02:05:17;;;;;;;66.03;33.47;;;4.80;99.90;;;;;;4993976;28;20547;-59
2022/01/25 02:07:44;;;;;;;62.25;33.28;;;4.80;99.90;;;;;;4996972;28;20035;-58
2022/01/25 02:10:10;;;;;;;64.47;34.33;;;4.90;99.90;;;;;;4998326;28;20498;-57
2022/01/25 02:12:35;;;;;;;65.22;37.05;;;4.80;99.90;;;;;;4944307;28;20421;-59
2022/01/25 02:15:04;;;;;;;57.03;31.27;;;4.80;99.90;;;;;;4995149;28;20043;-58
2022/01/25 02:23:21;;;;;;;66.63;35.63;;;4.80;99.90;;;;;;4996255;28;20087;-58
2022/01/25 02:25:47;;;;;;;73.03;38.65;;;4.90;99.90;;;;;;4984590;28;20086;-57
2022/01/25 02:28:14;;;;;;;64.50;35.25;;;4.80;99.90;;;;;;5004109;28;20051;-57
2022/01/25 02:30:41;;;;;;;62.63;34.75;;;4.80;99.90;;;;;;4939861;28;20055;-58
2022/01/25 02:33:07;;;;;;;63.78;34.47;;;4.80;99.90;;;;;;4997196;28;20075;-56
2022/01/25 02:35:33;;;;;;;66.18;36.20;;;4.80;99.90;;;;;;4933506;28;20137;-57
2022/01/25 02:37:58;;;;;;;60.75;34.10;;;4.80;99.90;;;;;;4993302;28;20032;-59
2022/01/25 02:40:24;;;;;;;64.38;36.17;;;4.80;99.90;;;;;;4932730;28;20047;-61
2022/01/25 02:42:51;;;;;;;68.95;36.92;;;4.80;99.90;;;;;;4994062;28;20061;-60
2022/01/25 02:45:17;;;;;;;58.75;32.85;;;4.80;99.90;;;;;;4988767;28;20177;-59
2022/01/25 02:50:28;;;;;;;67.32;38.03;;;4.80;99.90;;;;;;5002117;28;20050;-59
2022/01/25 02:52:55;;;;;;;65.97;34.80;;;4.80;99.90;;;;;;5003772;28;20415;-57
2022/01/25 02:55:21;;;;;;;67.55;37.38;;;4.80;99.90;;;;;;5003016;28;20047;-57
2022/01/25 02:57:47;;;;;;;70.95;35.55;;;4.80;99.90;;;;;;4906302;28;20050;-60
2022/01/25 03:00:14;;;;;;;73.72;37.22;;;4.80;99.90;;;;;;5005455;28;20051;-59
2022/01/25 03:02:40;;;;;;;69.53;37.35;;;4.80;99.90;;;;;;5006868;28;20118;-57
2022/01/25 03:05:06;;;;;;;70.82;37.78;;;4.80;99.90;;;;;;4997350;28;20093;-59
2022/01/25 03:07:33;;;;;;;64.97;34.55;;;4.80;99.90;;;;;;4995298;28;20059;-57
2022/01/25 03:10:00;;;;;;;68.60;37.53;;;4.80;99.90;;;;;;5001246;28;20075;-60
2022/01/25 03:12:41;;;;;;;66.53;35.45;;;4.80;99.90;;;;;;4997708;28;20176;-60
2022/01/25 03:17:48;;;;;;;66.15;35.28;;;4.80;99.90;;;;;;5001918;28;20134;-57
2022/01/25 03:20:33;;;;;;;71.25;37.70;;;4.70;99.90;;;;;;5005772;28;20890;-60
2022/01/25 03:23:05;;;;;;;67.97;36.97;;;4.70;99.90;;;;;;5002237;28;20101;-58
2022/01/25 03:25:31;;;;;;;72.28;36.90;;;4.70;99.90;;;;;;4939607;28;20403;-57
2022/01/25 03:27:58;;;;;;;68.57;35.90;;;4.80;99.90;;;;;;4946745;28;20035;-60
2022/01/25 03:30:27;;;;;;;66.93;34.80;;;4.80;99.90;;;;;;5010484;28;20042;-60
2022/01/25 03:32:52;;;;;;;66.38;36.50;;;4.80;99.90;;;;;;4996192;28;20043;-60
2022/01/25 03:35:18;;;;;;;67.38;36.17;;;4.80;99.90;;;;;;4999806;28;20043;-58
2022/01/25 03:37:44;;;;;;;61.05;33.53;;;4.80;99.90;;;;;;4999691;28;20086;-54
2022/01/25 03:40:10;;;;;;;68.28;37.28;;;4.80;99.90;;;;;;5004887;28;20109;-59
2022/01/25 03:42:38;;;;;;;67.97;37.22;;;4.80;99.90;;;;;;4996058;28;20044;-60
2022/01/25 03:45:09;;;;;;;67.20;37.05;;;4.80;99.90;;;;;;4996924;28;20507;-61
2022/01/25 03:48:00;;;;;;;68.53;37.95;;;4.80;99.90;;;;;;4997581;28;20047;-61
2022/01/25 03:50:26;;;;;;;66.03;34.25;;;4.80;99.90;;;;;;5002048;28;20051;-58
2022/01/25 03:52:52;;;;;;;56.88;33.00;;;4.80;99.90;;;;;;5001974;28;20037;-60
2022/01/25 03:55:19;;;;;;;64.93;35.35;;;4.80;99.90;;;;;;4998616;28;20047;-60
2022/01/25 03:57:45;;;;;;;66.40;37.15;;;4.80;99.90;;;;;;5006950;28;20402;-60
2022/01/25 04:00:11;;;;;;;62.90;35.08;;;4.80;99.90;;;;;;4991447;28;20043;-60
2022/01/25 04:02:45;;;;;;;61.85;36.58;;;4.80;99.90;;;;;;4996007;28;20051;-57
2022/01/25 04:05:20;;;;;;;63.90;35.50;;;4.80;99.90;;;;;;5000802;28;20071;-59
2022/01/25 04:07:50;;;;;;;65.05;36.67;;;4.80;99.90;;;;;;4996243;28;20109;-61
2022/01/25 04:10:17;;;;;;;64.05;35.83;;;4.80;99.90;;;;;;4936844;28;20406;-59
2022/01/25 04:12:44;;;;;;;68.60;37.80;;;4.80;99.90;;;;;;4993622;28;20127;-60
2022/01/25 04:15:10;;;;;;;70.88;37.65;;;4.80;99.90;;;;;;4999836;28;20046;-59
2022/01/25 04:17:37;;;;;;;65.55;35.78;;;4.80;99.90;;;;;;4995029;28;20043;-60
2022/01/25 04:25:45;;;;;;;70.75;37.80;;;4.80;99.90;;;;;;5003455;28;20055;-58
2022/01/25 04:28:11;;;;;;;60.08;33.47;;;4.80;99.90;;;;;;5002348;28;20047;-58
2022/01/25 04:30:36;;;;;;;68.25;36.05;;;4.70;99.90;;;;;;4919621;28;20197;-59
2022/01/25 04:33:17;;;;;;;73.80;40.15;;;4.80;99.90;;;;;;4942310;28;20047;-60
2022/01/25 04:36:26;;;;;;;68.32;36.70;;;4.70;99.90;;;;;;4925824;28;20071;-58
2022/01/25 04:49:29;;;;;;;;;;;4.70;99.90;;;;;;4997252;28;20055;-58
2022/01/25 04:52:04;;;;;;;72.10;37.85;;;4.70;99.90;;;;;;5017108;28;19933;-59
2022/01/25 04:54:49;;;;;;;76.03;38.03;;;4.70;99.90;;;;;;4918347;28;20504;-56
2022/01/25 05:00:11;;;;;;;70.28;36.83;;;4.80;99.90;;;;;;5000115;28;20282;-58
2022/01/25 05:02:47;;;;;;;62.38;34.25;;;4.70;99.90;;;;;;4999481;28;20051;-59
2022/01/25 05:05:22;;;;;;;69.55;37.33;;;4.70;99.90;;;;;;4994031;28;20051;-58
2022/01/25 05:10:20;;;;;;;69.55;37.50;;;4.70;99.90;;;;;;5008939;28;20256;-57
2022/01/25 05:12:52;;;;;;;72.68;38.22;;;5.00;99.90;;;;;;5001455;28;20519;-57
2022/01/25 05:16:28;;;;;;;70.45;39.13;;;4.70;99.90;;;;;;4934311;28;20043;-55
2022/01/25 05:18:19;;;;;;;64.05;33.80;;;4.70;99.90;;;;;;4980213;28;20054;-59
2022/01/25 05:23:29;;;;;;;66.68;37.65;;;4.70;99.90;;;;;;4978480;28;20050;-59
2022/01/25 05:25:55;;;;;;;65.43;35.92;;;4.70;99.90;;;;;;4932549;28;20544;-57
2022/01/25 05:28:21;;;;;;;67.97;36.15;;;4.70;99.90;;;;;;5006960;28;20052;-58
2022/01/25 05:30:47;;;;;;;68.43;37.22;;;4.80;99.90;;;;;;4999777;28;20039;-57
2022/01/25 05:33:12;;;;;;;70.10;36.85;;;4.70;99.90;;;;;;5000659;28;20100;-58
2022/01/25 05:35:38;;;;;;;66.30;35.78;;;4.70;99.90;;;;;;4995525;28;20040;-59
2022/01/25 05:38:04;;;;;;;61.20;34.22;;;4.70;99.90;;;;;;4990834;28;20035;-60
2022/01/25 05:40:49;;;;;;;68.22;36.55;;;4.70;99.90;;;;;;4982769;28;20458;-56
2022/01/25 05:46:11;;;;;;;69.85;36.97;;;4.80;99.90;;;;;;4922959;28;20494;-58
2022/01/25 05:48:38;;;;;;;74.85;38.38;;;4.70;99.90;;;;;;5012677;28;20161;-57
2022/01/25 05:51:04;;;;;;;74.25;37.30;;;4.70;99.90;;;;;;4984070;28;20566;-59
2022/01/25 05:53:31;;;;;;;70.28;36.53;;;4.70;99.90;;;;;;4987292;28;20071;-58
2022/01/25 05:55:57;;;;;;;68.47;36.45;;;4.70;99.90;;;;;;5002554;28;20532;-57
2022/01/25 05:58:23;;;;;;;70.88;37.60;;;4.70;99.90;;;;;;4993471;28;20047;-56
2022/01/25 06:00:49;;;;;;;68.90;34.15;;;4.70;99.90;;;;;;4932412;28;20047;-58
2022/01/25 06:03:15;;;;;;;66.03;35.72;;;4.70;99.90;;;;;;4981603;28;20093;-58
2022/01/25 06:05:41;;;;;;;66.60;35.47;;;4.70;99.90;;;;;;4998775;28;20058;-59
2022/01/25 06:08:07;;;;;;;66.60;36.05;;;4.70;99.90;;;;;;5014788;23;20555;-64
2022/01/25 06:10:33;;;;;;;65.28;35.15;;;4.70;99.90;;;;;;4974990;28;20099;-64
2022/01/25 06:13:00;;;;;;;68.60;37.45;;;4.70;99.90;;;;;;4942959;28;20042;-63
2022/01/25 06:15:26;;;;;;;66.32;35.83;;;4.70;99.90;;;;;;4944171;28;20043;-64
2022/01/25 06:17:52;;;;;;;69.72;36.83;;;4.70;99.90;;;;;;4981092;28;20632;-64
2022/01/25 06:20:18;;;;;;;60.03;32.47;;;4.70;99.90;;;;;;4964394;28;20058;-64
2022/01/25 06:22:44;;;;;;;71.05;37.33;;;4.70;99.90;;;;;;4953316;28;20612;-64
2022/01/25 06:25:11;;;;;;;66.53;34.60;;;4.70;99.90;;;;;;4950886;28;20106;-64
2022/01/25 06:27:42;;;;;;;63.22;34.08;;;4.70;99.90;;;;;;4950753;28;20046;-64
2022/01/25 06:30:10;;;;;;;73.43;37.55;;;4.70;99.90;;;;;;4955890;28;20144;-64
2022/01/25 06:32:36;;;;;;;69.63;36.55;;;4.70;99.90;;;;;;4945475;28;20042;-64
2022/01/25 06:35:06;;;;;;;69.22;35.92;;;4.70;99.90;;;;;;4954557;28;20133;-64
2022/01/25 06:37:33;;;;;;;62.55;33.83;;;4.70;99.90;;;;;;4944859;28;20335;-64
2022/01/25 06:39:59;;;;;;;64.55;36.67;;;4.70;99.90;;;;;;4927035;28;20054;-64
2022/01/25 06:42:31;;;;;;;72.95;37.20;;;4.70;99.90;;;;;;4925690;28;20050;-64
2022/01/25 06:45:01;;;;;;;67.30;36.45;;;4.70;99.90;;;;;;4939389;28;20514;-64
2022/01/25 06:47:27;;;;;;;70.53;36.55;;;4.70;99.90;;;;;;4971395;28;22543;-64
2022/01/25 06:49:53;;;;;;;65.80;32.40;;;4.70;99.90;;;;;;4951123;28;21625;-64
2022/01/25 06:52:19;;;;;;;65.75;35.08;;;4.70;99.90;;;;;;4951364;28;20043;-64
2022/01/25 06:54:44;;;;;;;67.30;37.10;;;4.70;99.90;;;;;;4948543;28;20310;-64
2022/01/25 06:57:10;;;;;;;73.25;37.50;;;4.70;99.90;;;;;;4968684;28;20034;-64
2022/01/25 06:59:36;;;;;;;72.45;36.80;;;4.70;99.90;;;;;;4951589;28;21916;-64
2022/01/25 07:02:02;;;;;;;65.82;35.28;;;4.70;99.90;;;;;;4953708;28;20050;-64
2022/01/25 07:04:28;;;;;;;61.53;33.83;;;4.70;99.90;;;;;;4955251;28;20137;-64
2022/01/25 07:06:54;;;;;;;71.32;37.28;;;4.70;99.90;;;;;;4941288;28;20042;-65
2022/01/25 07:09:19;;;;;;;64.50;35.47;;;4.80;99.90;;;;;;4950764;28;20221;-64
2022/01/25 07:11:45;;;;;;;69.22;35.22;;;4.70;99.90;;;;;;4962190;28;20043;-64
2022/01/25 07:14:12;;;;;;;63.00;32.92;;;4.70;99.90;;;;;;4950209;28;20069;-64
2022/01/25 07:16:38;;;;;;;73.68;37.17;;;4.70;99.90;;;;;;4961669;28;20160;-64
2022/01/25 07:19:03;;;;;;;65.65;33.20;;;4.70;99.90;;;;;;4956130;28;20493;-64
2022/01/25 07:21:29;;;;;;;71.43;36.58;;;4.70;99.90;;;;;;4934285;28;20043;-64
2022/01/25 07:23:55;;;;;;;67.00;36.90;;;4.70;99.90;;;;;;4946566;28;20048;-64
2022/01/25 07:26:20;;;;;;;64.65;35.50;;;4.80;99.90;;;;;;4960659;28;20083;-64
2022/01/25 07:28:46;;;;;;;71.72;38.30;;;4.80;99.90;;;;;;4948930;28;20070;-64
2022/01/25 07:31:12;;;;;;;81.05;40.05;;;4.70;99.90;;;;;;4960848;28;20145;-64
2022/01/25 07:33:38;;;;;;;67.25;35.13;;;4.70;99.90;;;;;;4956206;28;20089;-64
2022/01/25 07:36:05;;;;;;;60.83;31.30;;;4.80;99.90;;;;;;4956653;28;20694;-64
2022/01/25 07:38:31;;;;;;;67.07;35.05;;;4.70;99.90;;;;;;4934947;28;20138;-64
2022/01/25 07:40:57;;;;;;;73.47;37.95;;;4.70;99.90;;;;;;4950756;28;20134;-64
2022/01/25 07:43:23;;;;;;;75.40;37.42;;;4.70;99.90;;;;;;4930007;28;20042;-64
2022/01/25 07:45:52;;;;;;;72.43;37.65;;;4.70;99.90;;;;;;4958901;28;20462;-64
2022/01/25 07:48:19;;;;;;;68.05;34.55;;;4.70;99.90;;;;;;4953836;28;20064;-64
2022/01/25 07:50:45;;;;;;;67.60;34.85;;;4.70;99.90;;;;;;4958584;28;20051;-64
2022/01/25 07:53:11;;;;;;;73.93;37.15;;;4.70;99.90;;;;;;4953081;28;20042;-64
2022/01/25 07:55:37;;;;;;;65.45;34.53;;;4.70;99.90;;;;;;4950924;28;20092;-64
2022/01/25 07:58:03;;;;;;;69.47;37.00;;;4.70;99.90;;;;;;4942912;28;20042;-64
2022/01/25 08:00:29;;;;;;;72.60;37.25;;;4.70;99.90;;;;;;4944361;28;20093;-64
2022/01/25 08:02:55;;;;;;;67.40;35.63;;;4.70;99.90;;;;;;4941844;28;20493;-64
2022/01/25 08:05:24;;;;;;;72.03;36.25;;;4.70;99.90;;;;;;4955059;28;20050;-65
2022/01/25 08:07:50;;;;;;;69.90;36.05;;;4.70;99.90;;;;;;4933784;28;20164;-64
2022/01/25 08:10:16;;;;;;;64.15;34.33;;;4.60;99.90;;;;;;4948314;28;20046;-64
2022/01/25 08:12:42;;;;;;;70.88;36.42;;;4.70;99.90;;;;;;4953674;28;20071;-65
2022/01/25 08:15:08;;;;;;;66.85;35.70;;;4.70;99.90;;;;;;4928413;28;20030;-64
2022/01/25 08:17:35;;;;;;;76.28;38.90;;;4.70;99.90;;;;;;4955088;28;20531;-64
2022/01/25 08:20:01;;;;;;;59.85;33.00;;;4.70;99.90;;;;;;4952724;28;20053;-63
2022/01/25 08:22:27;;;;;;;69.10;35.97;;;4.70;99.90;;;;;;4955555;28;20061;-64
2022/01/25 08:24:53;;;;;;;71.68;36.90;;;4.70;99.90;;;;;;4957239;28;20424;-64
2022/01/25 08:27:20;;;;;;;63.72;34.22;;;4.70;99.90;;;;;;4940013;28;20427;-64
2022/01/25 08:29:53;;;;;;;65.50;33.92;;;4.70;99.90;;;;;;4941850;28;20099;-64
2022/01/25 08:32:19;;;;;;;72.88;37.40;;;4.70;99.90;;;;;;4954543;28;20045;-64
2022/01/25 08:34:46;;;;;;;73.05;37.20;;;4.70;99.90;;;;;;4944707;28;20038;-64
2022/01/25 08:37:12;;;;;;;75.45;40.17;;;4.70;99.90;;;;;;4953771;28;20447;-64
2022/01/25 08:39:38;;;;;;;63.35;32.97;;;4.70;99.90;;;;;;4943857;28;20050;-64
2022/01/25 08:42:04;;;;;;;70.00;34.28;;;4.70;99.90;;;;;;4926659;28;20087;-64
2022/01/25 08:44:30;;;;;;;76.38;38.65;;;4.70;99.90;;;;;;4952552;28;20061;-64
2022/01/25 08:46:56;;;;;;;76.68;40.08;;;4.70;99.90;;;;;;4930774;28;20493;-64
2022/01/25 08:49:22;;;;;;;72.50;36.55;;;4.70;99.90;;;;;;4931129;28;20058;-65
2022/01/25 08:51:48;;;;;;;72.05;36.95;;;4.80;99.90;;;;;;4940831;28;20404;-64
2022/01/25 08:54:15;;;;;;;77.10;38.22;;;4.70;99.90;;;;;;4958428;28;20042;-64
2022/01/25 08:56:41;;;;;;;71.70;37.90;;;4.70;99.90;;;;;;4958002;28;20131;-64
2022/01/25 08:59:08;;;;;;;63.05;33.85;;;4.70;99.90;;;;;;4945260;28;20031;-64
2022/01/25 09:01:34;;;;;;;74.38;39.60;;;4.70;99.90;;;;;;4958764;28;20107;-65
2022/01/25 09:04:01;;;;;;;69.95;36.55;;;4.70;99.90;;;;;;4935967;28;20104;-66
2022/01/25 09:06:27;;;;;;;72.88;37.40;;;4.70;99.90;;;;;;4940422;28;20046;-65
2022/01/25 09:08:59;;;;;;;72.93;39.63;;;4.70;99.90;;;;;;4953816;28;20038;-65
2022/01/25 09:11:25;;;;;;;72.65;35.88;;;4.80;99.90;;;;;;4915312;28;20121;-65
2022/01/25 09:13:51;;;;;;;72.55;36.38;;;4.70;99.90;;;;;;4955688;28;20051;-63
2022/01/25 09:16:16;;;;;;;71.25;37.40;;;4.70;99.90;;;;;;4933245;28;20171;-64
2022/01/25 09:18:43;;;;;;;73.03;36.67;;;4.70;99.90;;;;;;4964471;28;20035;-65
2022/01/25 09:21:10;;;;;;;82.72;40.33;;;4.80;99.90;;;;;;4944805;28;20046;-63
2022/01/25 09:23:36;;;;;;;69.93;37.17;;;4.70;99.90;;;;;;4958692;28;20045;-63
2022/01/25 09:26:03;;;;;;;78.88;40.50;;;4.70;99.90;;;;;;4959187;28;20401;-63
2022/01/25 09:28:29;;;;;;;78.60;38.17;;;4.80;99.90;;;;;;4970360;28;20038;-63
2022/01/25 09:30:55;;;;;;;77.57;39.78;;;4.70;99.90;;;;;;4953387;28;20042;-63
2022/01/25 09:33:22;;;;;;;79.90;39.33;;;4.80;99.90;;;;;;4959705;28;20494;-65
2022/01/25 09:35:49;;;;;;;80.90;38.58;;;4.70;99.90;;;;;;4950826;28;20051;-63
2022/01/25 09:38:15;;;;;;;80.00;40.42;;;4.80;99.90;;;;;;4952923;28;20030;-63
2022/01/25 09:40:41;;;;;;;76.20;38.97;;;4.80;99.90;;;;;;4951230;28;20527;-63
2022/01/25 09:43:07;;;;;;;67.60;35.90;;;4.80;99.90;;;;;;5023988;28;20305;-64
2022/01/25 09:45:34;;;;;;;79.55;37.42;;;4.80;99.90;;;;;;4948396;28;20160;-65
2022/01/25 09:48:00;;;;;;;76.45;38.83;;;4.80;99.90;;;;;;4939875;28;20057;-66
2022/01/25 09:50:26;;;;;;;79.93;41.05;;;4.70;99.90;;;;;;4963175;28;20046;-65
2022/01/25 09:52:53;;;;;;;75.15;39.58;;;4.80;99.90;;;;;;4937664;28;20050;-65
2022/01/25 09:55:22;;;;;;;72.80;37.67;;;4.80;99.90;;;;;;4933701;28;21874;-65
2022/01/25 09:57:48;;;;;;;88.20;37.47;;;4.80;99.90;;;;;;4940391;28;20123;-65
2022/01/25 10:00:17;;;;;;;70.15;36.42;;;4.80;99.90;;;;;;4946544;28;20416;-66
2022/01/25 10:02:51;;;;;;;69.82;35.53;;;4.80;99.90;;;;;;4945267;28;20164;-65
2022/01/25 10:05:28;;;;;;;77.03;40.05;;;4.80;99.90;;;;;;4954968;28;20038;-63
2022/01/25 10:08:01;;;;;;;78.25;37.05;;;4.80;99.90;;;;;;5034808;28;20042;-63
2022/01/25 10:10:29;;;;;;;71.65;36.45;;;4.80;99.90;;;;;;4953017;28;20321;-65
2022/01/25 10:13:22;;;;;;;76.18;39.10;;;4.80;99.90;;;;;;4953953;28;20076;-65
2022/01/25 10:16:09;;;;;;;68.10;35.95;;;4.80;99.90;;;;;;4929608;28;20501;-63
2022/01/25 10:18:51;;;;;;;71.95;38.28;;;4.70;99.90;;;;;;4962034;28;20446;-63
2022/01/25 10:21:28;;;;;;;76.88;36.90;;;4.80;99.90;;;;;;4959574;28;20443;-63
2022/01/25 10:24:24;;;;;;;75.25;38.50;;;4.80;99.90;;;;;;4932113;28;20042;-65
2022/01/25 10:27:02;;;;;;;81.70;38.97;;;4.80;99.90;;;;;;4959936;28;20413;-63
2022/01/25 10:29:36;;;;;;;65.35;35.55;;;5.00;99.90;;;;;;4957570;28;20566;-63
2022/01/25 10:32:05;;;;;;;77.65;39.58;;;4.80;99.90;;;;;;4951222;28;20498;-64
2022/01/25 10:34:57;;;;;;;71.47;36.63;;;4.80;99.90;;;;;;4948429;28;20062;-63
2022/01/25 10:37:25;;;;;;;77.22;38.53;;;4.90;99.90;;;;;;4928771;28;20043;-65
2022/01/25 10:39:52;;;;;;;77.85;39.72;;;4.80;99.90;;;;;;4953052;28;20054;-65
2022/01/25 10:42:21;;;;;;;78.30;39.92;;;4.80;99.90;;;;;;4925088;28;20480;-65
2022/01/25 10:45:02;;;;;;;80.15;40.08;;;4.80;99.90;;;;;;4939599;28;20046;-63
2022/01/25 10:47:50;;;;;;;75.10;37.55;;;4.80;99.90;;;;;;4960440;28;20525;-63
2022/01/25 10:50:27;;;;;;;82.30;40.25;;;4.80;99.90;;;;;;4956179;28;20116;-63
2022/01/25 10:53:10;;;;;;;67.88;35.17;;;4.80;99.90;;;;;;4954260;28;20050;-64
2022/01/25 10:55:45;;;;;;;76.05;38.05;;;4.90;99.90;;;;;;4964694;28;20046;-66
2022/01/25 10:58:12;;;;;;;73.88;39.17;;;4.80;99.90;;;;;;4957922;28;20493;-63
2022/01/25 11:00:42;;;;;;;78.40;39.38;;;4.90;99.90;;;;;;4951558;28;20043;-63
2022/01/25 11:03:09;;;;;;;69.60;37.85;;;4.90;99.90;;;;;;4954939;28;20046;-62
2022/01/25 11:05:38;;;;;;;81.97;41.25;;;4.90;99.90;;;;;;4920042;28;20405;-65
2022/01/25 11:08:19;;;;;;;77.10;38.30;;;4.90;99.90;;;;;;4976532;28;20039;-65
2022/01/25 11:10:53;;;;;;;78.53;39.10;;;4.90;99.90;;;;;;4951168;28;20104;-63
2022/01/25 11:15:58;;;;;;;74.65;37.88;;;4.90;99.90;;;;;;4959545;28;20100;-65
2022/01/25 11:18:24;;;;;;;74.72;39.42;;;4.90;99.90;;;;;;4951252;28;20064;-63
2022/01/25 11:20:51;;;;;;;82.38;41.08;;;4.90;99.90;;;;;;4958968;28;20046;-64
2022/01/25 11:23:18;;;;;;;81.13;41.70;;;4.90;99.90;;;;;;4963293;28;20501;-63
2022/01/25 11:25:46;;;;;;;83.32;40.88;;;4.90;99.90;;;;;;4949658;28;20052;-63
2022/01/25 11:28:13;;;;;;;83.50;42.22;;;4.90;99.90;;;;;;5005609;28;20049;-65
2022/01/25 11:30:40;;;;;;;79.80;40.10;;;4.80;99.90;;;;;;4964947;28;22417;-63
2022/01/25 11:33:09;;;;;;;80.68;41.95;;;4.90;99.90;;;;;;4964435;28;20817;-63
2022/01/25 11:35:37;;;;;;;80.57;39.55;;;4.90;99.90;;;;;;4944458;28;20125;-63
2022/01/25 11:38:05;;;;;;;76.18;38.63;;;4.90;99.90;;;;;;4964907;28;20095;-63
2022/01/25 11:40:46;;;;;;;82.15;41.42;;;4.90;99.90;;;;;;4960231;28;20096;-65
2022/01/25 11:43:14;;;;;;;81.75;40.72;;;4.90;99.90;;;;;;4957558;28;20054;-63
2022/01/25 11:45:49;;;;;;;83.78;41.13;;;4.90;99.90;;;;;;4965082;28;20061;-64
2022/01/25 11:48:23;;;;;;;85.97;41.92;;;4.90;99.90;;;;;;4953698;28;20054;-64
2022/01/25 11:50:49;;;;;;;79.05;40.50;;;4.90;99.90;;;;;;4945684;28;20050;-66
2022/01/25 11:53:17;;;;;;;87.90;42.78;;;4.90;99.90;;;;;;4956013;28;20396;-64
2022/01/25 11:55:49;;;;;;;78.40;39.60;;;4.90;99.90;;;;;;4949765;28;20282;-64
2022/01/25 11:58:21;;;;;;;78.82;38.95;;;4.90;99.90;;;;;;4982123;28;20096;-64
2022/01/25 12:00:52;;;;;;;82.25;39.47;;;4.90;99.90;;;;;;4962263;28;20039;-65
2022/01/25 12:03:55;;;;;;;77.55;39.80;;;4.90;99.90;;;;;;4961389;28;20535;-63
2022/01/25 12:06:30;;;;;;;81.43;39.55;;;4.90;99.90;;;;;;4936304;28;20055;-63
2022/01/25 12:11:47;;;;;;;90.22;42.05;;;4.90;99.90;;;;;;5056248;28;20048;-57
2022/01/25 12:14:33;;;;;;;97.68;43.55;;;4.90;99.90;;;;;;5057080;28;20052;-58
2022/01/25 12:17:04;;;;;;;88.75;43.85;;;4.90;99.90;;;;;;5060099;28;20601;-58
2022/01/25 12:19:58;;;;;;;89.40;44.03;;;4.90;99.90;;;;;;5060999;28;20487;-58
2022/01/25 12:22:35;;;;;;;84.50;39.38;;;4.90;99.90;;;;;;5056644;28;20089;-58
2022/01/25 12:25:22;;;;;;;85.80;42.30;;;4.90;99.90;;;;;;5059347;28;20062;-58
2022/01/25 12:27:55;;;;;;;87.47;43.45;;;4.90;99.90;;;;;;5058732;28;20059;-57
2022/01/25 12:30:39;;;;;;;91.38;46.95;;;4.90;99.90;;;;;;5053892;28;20036;-57
2022/01/25 12:33:33;;;;;;;94.93;44.70;;;4.90;99.90;;;;;;5064763;28;20056;-59
2022/01/25 12:36:03;;;;;;;92.32;46.10;;;4.90;99.90;;;;;;5061202;28;20423;-58
2022/01/25 12:38:37;;;;;;;92.25;43.75;;;4.90;99.90;;;;;;5057296;28;20085;-58
2022/01/25 12:41:18;;;;;;;88.40;43.90;;;4.90;99.90;;;;;;5083690;28;20509;-60
2022/01/25 12:43:51;;;;;;;86.50;43.28;;;4.80;99.90;;;;;;5057936;28;20044;-60
2022/01/25 12:46:19;;;;;;;86.70;43.70;;;4.80;99.90;;;;;;5064233;28;20029;-57
2022/01/25 12:48:58;;;;;;;86.35;42.58;;;4.80;99.90;;;;;;5058404;28;20363;-59
2022/01/25 12:51:35;;;;;;;89.55;43.10;;;4.80;99.90;;;;;;5059974;28;20037;-58
2022/01/25 12:54:04;;;;;;;85.93;41.78;;;4.80;99.90;;;;;;5050273;28;20534;-56
2022/01/25 12:56:44;;;;;;;80.35;41.00;;;4.80;99.90;;;;;;5061038;28;20177;-58
2022/01/25 12:59:16;;;;;;;84.25;42.47;;;4.80;99.90;;;;;;5068164;28;20483;-59
2022/01/25 13:01:42;;;;;;;84.53;40.90;;;4.90;99.90;;;;;;5060531;28;21102;-58
2022/01/25 13:04:10;;;;;;;84.95;42.28;;;4.90;99.90;;;;;;5040182;28;20040;-60
2022/01/25 13:06:38;;;;;;;82.03;41.25;;;4.80;99.90;;;;;;5043232;28;20055;-58
2022/01/25 13:09:14;;;;;;;88.18;41.15;;;4.90;99.90;;;;;;5046703;28;20423;-60
2022/01/25 13:17:15;;;;;;;93.80;42.17;;;4.90;99.90;;;;;;5060168;28;20044;-57
2022/01/25 13:19:50;;;;;;;88.07;42.45;;;4.90;99.90;;;;;;5052108;28;20487;-57
2022/01/25 13:22:20;;;;;;;83.15;39.88;;;4.90;99.90;;;;;;5050915;28;20510;-58
2022/01/25 13:25:14;;;;;;;94.15;47.13;;;4.90;99.90;;;;;;5047954;28;20036;-57
2022/01/25 13:27:55;;;;;;;;;;;4.90;99.90;;;;;;5049137;28;20065;-58
2022/01/25 13:30:43;;;;;;;85.20;41.47;;;4.90;99.90;;;;;;5037147;28;20455;-58
2022/01/25 13:33:11;;;;;;;80.97;38.75;;;4.80;99.90;;;;;;5053620;28;20048;-58
2022/01/25 13:35:41;;;;;;;82.57;40.03;;;4.80;99.90;;;;;;5057149;28;20033;-56
2022/01/25 13:38:13;;;;;;;83.70;42.38;;;4.80;99.90;;;;;;5035463;28;20066;-58
2022/01/25 13:45:57;;;;;;;85.68;40.20;;;4.80;99.90;;;;;;5063086;28;20052;-58
2022/01/25 13:48:27;;;;;;;81.95;39.10;;;4.80;99.90;;;;;;5057051;28;20094;-59
2022/01/25 13:51:01;;;;;;;84.80;39.17;;;4.80;99.90;;;;;;5027835;28;20059;-59
2022/01/25 13:53:28;;;;;;;79.35;39.22;;;4.80;99.90;;;;;;5056410;28;20049;-58
2022/01/25 13:55:56;;;;;;;80.55;39.42;;;4.80;99.90;;;;;;5038093;28;20041;-59
2022/01/25 13:58:23;;;;;;;80.95;39.03;;;4.70;99.90;;;;;;5043716;28;20068;-58
2022/01/25 14:00:51;;;;;;;87.80;40.50;;;4.70;99.90;;;;;;5050638;28;20041;-58
2022/01/25 14:03:17;;;;;;;87.40;39.53;;;4.70;99.90;;;;;;5044358;28;20174;-59
2022/01/25 14:05:43;;;;;;;87.10;39.78;;;4.60;99.90;;;;;;5049342;28;20032;-59
2022/01/25 14:08:09;;;;;;;94.95;43.95;;;4.70;99.90;;;;;;5059510;28;20056;-59
2022/01/25 14:10:35;;;;;;;109.57;50.60;;;4.70;99.90;;;;;;5052950;28;20116;-59
2022/01/25 14:24:06;;;;;;;92.60;40.53;;;4.70;99.90;;;;;;5057591;28;20495;-59
2022/01/25 14:26:32;;;;;;;99.90;45.47;;;4.70;99.90;;;;;;5061424;28;20075;-59
2022/01/25 14:29:13;;;;;;;91.47;43.28;;;4.90;99.90;;;;;;5056647;28;20125;-59
2022/01/25 14:31:42;;;;;;;89.82;40.47;;;4.70;99.90;;;;;;5037797;28;20087;-57
2022/01/25 14:34:11;;;;;;;91.50;42.25;;;4.70;99.90;;;;;;5058669;28;20103;-58
2022/01/25 14:36:39;;;;;;;97.57;46.42;;;4.70;99.90;;;;;;5054717;28;20037;-58
2022/01/25 14:39:06;;;;;;;86.15;41.85;;;4.80;99.90;;;;;;5060276;28;20040;-59
2022/01/25 14:41:36;;;;;;;99.07;46.05;;;4.70;99.90;;;;;;5054088;28;20399;-58
2022/01/25 14:44:08;;;;;;;88.22;42.75;;;4.70;99.90;;;;;;5027741;28;20055;-59
2022/01/25 14:46:36;;;;;;;91.38;43.60;;;4.80;99.90;;;;;;5049662;28;20048;-59
2022/01/25 14:49:20;;;;;;;90.88;41.65;;;4.70;99.90;;;;;;5054269;28;20040;-58
2022/01/25 14:51:48;;;;;;;92.57;42.33;;;4.70;99.90;;;;;;5053862;28;20047;-59
2022/01/25 14:54:17;;;;;;;84.63;40.10;;;4.70;99.90;;;;;;5055211;28;20115;-59
2022/01/25 14:56:53;;;;;;;93.68;40.83;;;4.70;99.90;;;;;;5053199;28;20032;-59
2022/01/25 14:59:25;;;;;;;87.57;41.58;;;4.70;99.90;;;;;;5056460;28;20522;-59
2022/01/25 15:02:04;;;;;;;90.65;40.95;;;4.70;99.90;;;;;;5052320;28;20094;-59